Cortaro, Arizona
Current Conditions -  °F | °C
As of 6:35 PM on Tuesday 25 Nov 2014 (Local Time) from KAVQ Reporting Station
Clear Clear  
Wind Chill: 53°   Ceiling: Unl
Heat Index: 53°   Visibility: 10mi
Dew Point:   Wind: 8mph
Humidity: 14%   Direction: 340°NNW
Pressure: 30.31"   Gusts: NA
Location:  32.36°N, 111.09°W
Report Text: KAVQ 260135Z AUTO 34007KT 10SM CLR 12/M15 A3031 RMK AO2 T01181150
Loading
Personal Weather Stations






























Interactive Weather Map New forecast layout! Learn more

10-Day Weather Forecast

Advertisements
Track Severe Weather on mobile